Terminal Aerodrome Forecast
Issued by NWS

Home | Current Version | Previous Version | Text Only | Print | Product List | Glossary On
Versions: 1 2 3 4 5 6 7 8 9 10 11 12 13 14 15 16 17 18 19 20 21 22 23 24 25 26 27 28 29 30 31 32 33 34 35
000
FTUS45 KGJT 242333
TAFEGE
TAF
KEGE 242333Z 2500/2524 21015G21KT P6SM VCSH FEW040 BKN070
      TEMPO 2500/2503 -SHRA SCT035 BKN060
     FM250300 06004KT P6SM VCSH SCT040 OVC060
     FM251200 VRB03KT P6SM -SHRA BKN020 OVC040
     FM251500 VRB03KT P6SM VCSH SCT030 BKN070
     FM251800 25010G15KT P6SM VCTS SCT030 BKN070CB
      AMD LTD TO CLD VIS AND WIND 2502/2513=

USA.gov is the U.S. government's official web portal to all federal, state and local government web resources and services.